VI40 weather

Karnal Airport
Haryana, India

Public forecast

Using degrees Celsius for public forecast. Weather courtesy of forecast.io.

Closest aviation weather report (METAR) to Karnal Airport

Report is more than 6 hours old.

Closest report is Chandigarh Airport, 59.0 nm (109.3 km) NNW. Retrieved 2019/11/05 09:30 UTC (5 months ago):

VICG 050930Z 33010KT 6000 SKC 30/11 Q1010 NOSIG

Closest aviation forecast (TAF) to Karnal Airport

Forecast is more than 12 hours old.

Closest forecast is Sarsawa Air Force Station, 26.3 nm (48.6 km) NE. Retrieved 2016/07/10 06:00 UTC (4 years ago):

TAF VISP 100500Z 1006/1015 22005KT 4000 BR SCT025 BKN100 BECMG 1008/1010 25006KT 2500 BR TEMPO 1009/1012 -TSRA FEW035CB OVC080